sensor_id;sensor_type;location;lat;lon;timestamp;P1;durP1;ratioP1;P2;durP2;ratioP2
64633;SDS011;51043;52.406;9.690;2024-02-15T00:01:43;15.57;;;14.03;;
64633;SDS011;51043;52.406;9.690;2024-02-15T00:04:12;15.73;;;14.13;;
64633;SDS011;51043;52.406;9.690;2024-02-15T00:06:40;17.10;;;15.17;;
64633;SDS011;51043;52.406;9.690;2024-02-15T00:09:09;15.77;;;13.83;;
64633;SDS011;51043;52.406;9.690;2024-02-15T00:11:37;17.87;;;14.93;;
64633;SDS011;51043;52.406;9.690;2024-02-15T00:14:05;15.47;;;14.03;;
64633;SDS011;51043;52.406;9.690;2024-02-15T00:16:36;14.53;;;13.03;;
64633;SDS011;51043;52.406;9.690;2024-02-15T00:19:04;16.10;;;14.40;;
64633;SDS011;51043;52.406;9.690;2024-02-15T00:21:33;15.80;;;14.10;;
64633;SDS011;51043;52.406;9.690;2024-02-15T00:24:02;15.80;;;14.30;;
64633;SDS011;51043;52.406;9.690;2024-02-15T00:26:31;15.80;;;14.23;;
64633;SDS011;51043;52.406;9.690;2024-02-15T00:28:59;16.43;;;14.70;;
64633;SDS011;51043;52.406;9.690;2024-02-15T00:31:27;15.33;;;13.37;;
64633;SDS011;51043;52.406;9.690;2024-02-15T00:33:57;14.60;;;13.20;;
64633;SDS011;51043;52.406;9.690;2024-02-15T00:36:26;15.90;;;13.30;;
64633;SDS011;51043;52.406;9.690;2024-02-15T00:38:54;14.33;;;12.27;;
64633;SDS011;51043;52.406;9.690;2024-02-15T00:41:22;14.83;;;13.33;;
64633;SDS011;51043;52.406;9.690;2024-02-15T00:43:50;14.27;;;12.23;;
64633;SDS011;51043;52.406;9.690;2024-02-15T00:46:20;13.83;;;12.27;;
64633;SDS011;51043;52.406;9.690;2024-02-15T00:48:48;16.13;;;11.97;;
64633;SDS011;51043;52.406;9.690;2024-02-15T00:51:20;16.00;;;12.27;;
64633;SDS011;51043;52.406;9.690;2024-02-15T00:53:48;14.83;;;12.03;;
64633;SDS011;51043;52.406;9.690;2024-02-15T00:56:19;13.03;;;11.50;;
64633;SDS011;51043;52.406;9.690;2024-02-15T00:58:48;12.27;;;11.03;;
64633;SDS011;51043;52.406;9.690;2024-02-15T01:01:17;12.23;;;10.93;;
64633;SDS011;51043;52.406;9.690;2024-02-15T01:03:45;15.37;;;11.83;;
64633;SDS011;51043;52.406;9.690;2024-02-15T01:06:13;13.83;;;10.97;;
64633;SDS011;51043;52.406;9.690;2024-02-15T01:08:43;12.47;;;11.17;;
64633;SDS011;51043;52.406;9.690;2024-02-15T01:11:11;12.30;;;10.43;;
64633;SDS011;51043;52.406;9.690;2024-02-15T01:13:40;14.30;;;11.07;;
64633;SDS011;51043;52.406;9.690;2024-02-15T01:16:08;11.87;;;10.73;;
64633;SDS011;51043;52.406;9.690;2024-02-15T01:18:36;12.10;;;10.80;;
64633;SDS011;51043;52.406;9.690;2024-02-15T01:21:04;11.63;;;10.43;;
64633;SDS011;51043;52.406;9.690;2024-02-15T01:23:34;11.63;;;10.00;;
64633;SDS011;51043;52.406;9.690;2024-02-15T01:26:05;11.50;;;10.17;;
64633;SDS011;51043;52.406;9.690;2024-02-15T01:28:34;12.33;;;10.50;;
64633;SDS011;51043;52.406;9.690;2024-02-15T01:31:09;12.17;;;10.20;;
64633;SDS011;51043;52.406;9.690;2024-02-15T01:33:39;11.87;;;10.67;;
64633;SDS011;51043;52.406;9.690;2024-02-15T01:36:08;11.80;;;10.60;;
64633;SDS011;51043;52.406;9.690;2024-02-15T01:38:36;11.80;;;10.60;;
64633;SDS011;51043;52.406;9.690;2024-02-15T01:41:06;11.23;;;10.13;;
64633;SDS011;51043;52.406;9.690;2024-02-15T01:43:34;12.67;;;11.07;;
64633;SDS011;51043;52.406;9.690;2024-02-15T01:46:04;12.80;;;11.43;;
64633;SDS011;51043;52.406;9.690;2024-02-15T01:48:35;13.10;;;11.33;;
64633;SDS011;51043;52.406;9.690;2024-02-15T01:51:07;12.03;;;10.43;;
64633;SDS011;51043;52.406;9.690;2024-02-15T01:53:36;11.43;;;10.33;;
64633;SDS011;51043;52.406;9.690;2024-02-15T01:56:06;12.40;;;10.37;;
64633;SDS011;51043;52.406;9.690;2024-02-15T01:58:35;12.27;;;10.77;;
64633;SDS011;51043;52.406;9.690;2024-02-15T02:01:03;13.40;;;10.97;;
64633;SDS011;51043;52.406;9.690;2024-02-15T02:03:33;11.73;;;10.13;;
64633;SDS011;51043;52.406;9.690;2024-02-15T02:06:03;15.03;;;10.10;;
64633;SDS011;51043;52.406;9.690;2024-02-15T02:08:31;11.13;;;10.03;;
64633;SDS011;51043;52.406;9.690;2024-02-15T02:11:00;10.67;;;9.60;;
64633;SDS011;51043;52.406;9.690;2024-02-15T02:13:31;12.33;;;10.00;;
64633;SDS011;51043;52.406;9.690;2024-02-15T02:16:00;12.53;;;10.13;;
64633;SDS011;51043;52.406;9.690;2024-02-15T02:18:29;9.77;;;8.33;;
64633;SDS011;51043;52.406;9.690;2024-02-15T02:21:01;8.90;;;8.10;;
64633;SDS011;51043;52.406;9.690;2024-02-15T02:23:32;8.90;;;8.10;;
64633;SDS011;51043;52.406;9.690;2024-02-15T02:26:02;8.30;;;7.60;;
64633;SDS011;51043;52.406;9.690;2024-02-15T02:28:30;8.73;;;7.27;;
64633;SDS011;51043;52.406;9.690;2024-02-15T02:30:58;8.40;;;7.60;;
64633;SDS011;51043;52.406;9.690;2024-02-15T02:33:27;7.27;;;6.57;;
64633;SDS011;51043;52.406;9.690;2024-02-15T02:35:56;6.17;;;5.57;;
64633;SDS011;51043;52.406;9.690;2024-02-15T02:38:24;7.07;;;6.33;;
64633;SDS011;51043;52.406;9.690;2024-02-15T02:40:52;8.10;;;5.90;;
64633;SDS011;51043;52.406;9.690;2024-02-15T02:43:25;6.33;;;5.73;;
64633;SDS011;51043;52.406;9.690;2024-02-15T02:45:53;6.27;;;5.07;;
64633;SDS011;51043;52.406;9.690;2024-02-15T02:48:22;5.97;;;5.37;;
64633;SDS011;51043;52.406;9.690;2024-02-15T02:50:50;8.23;;;5.37;;
64633;SDS011;51043;52.406;9.690;2024-02-15T02:53:19;5.97;;;5.30;;
64633;SDS011;51043;52.406;9.690;2024-02-15T02:55:47;8.30;;;4.90;;
64633;SDS011;51043;52.406;9.690;2024-02-15T02:58:16;6.07;;;5.57;;
64633;SDS011;51043;52.406;9.690;2024-02-15T03:00:46;7.80;;;6.00;;
64633;SDS011;51043;52.406;9.690;2024-02-15T03:03:14;6.73;;;5.33;;
64633;SDS011;51043;52.406;9.690;2024-02-15T03:05:42;5.53;;;5.03;;
64633;SDS011;51043;52.406;9.690;2024-02-15T03:08:10;7.53;;;5.13;;
64633;SDS011;51043;52.406;9.690;2024-02-15T03:10:39;8.17;;;5.50;;
64633;SDS011;51043;52.406;9.690;2024-02-15T03:13:08;6.10;;;5.50;;
64633;SDS011;51043;52.406;9.690;2024-02-15T03:15:36;6.17;;;5.57;;
64633;SDS011;51043;52.406;9.690;2024-02-15T03:18:05;6.23;;;5.60;;
64633;SDS011;51043;52.406;9.690;2024-02-15T03:20:36;7.73;;;6.03;;
64633;SDS011;51043;52.406;9.690;2024-02-15T03:23:05;6.63;;;5.97;;
64633;SDS011;51043;52.406;9.690;2024-02-15T03:25:33;6.90;;;6.30;;
64633;SDS011;51043;52.406;9.690;2024-02-15T03:28:02;7.23;;;6.30;;
64633;SDS011;51043;52.406;9.690;2024-02-15T03:30:30;7.73;;;7.00;;
64633;SDS011;51043;52.406;9.690;2024-02-15T03:33:00;7.60;;;6.90;;
64633;SDS011;51043;52.406;9.690;2024-02-15T03:35:33;7.97;;;7.17;;
64633;SDS011;51043;52.406;9.690;2024-02-15T03:38:02;7.60;;;6.80;;
64633;SDS011;51043;52.406;9.690;2024-02-15T03:40:30;7.80;;;7.03;;
64633;SDS011;51043;52.406;9.690;2024-02-15T03:42:58;7.77;;;7.07;;
64633;SDS011;51043;52.406;9.690;2024-02-15T03:45:27;7.83;;;7.13;;
64633;SDS011;51043;52.406;9.690;2024-02-15T03:47:55;7.60;;;6.50;;
64633;SDS011;51043;52.406;9.690;2024-02-15T03:50:24;7.50;;;6.80;;
64633;SDS011;51043;52.406;9.690;2024-02-15T03:52:54;10.93;;;6.70;;
64633;SDS011;51043;52.406;9.690;2024-02-15T03:55:25;7.73;;;6.93;;
64633;SDS011;51043;52.406;9.690;2024-02-15T03:57:53;7.80;;;7.10;;
64633;SDS011;51043;52.406;9.690;2024-02-15T04:00:23;11.30;;;6.93;;
64633;SDS011;51043;52.406;9.690;2024-02-15T04:02:52;7.93;;;6.50;;
64633;SDS011;51043;52.406;9.690;2024-02-15T04:05:23;8.70;;;6.80;;
64633;SDS011;51043;52.406;9.690;2024-02-15T04:07:51;8.40;;;6.47;;
64633;SDS011;51043;52.406;9.690;2024-02-15T04:10:21;7.63;;;6.73;;
64633;SDS011;51043;52.406;9.690;2024-02-15T04:12:50;8.13;;;6.80;;
64633;SDS011;51043;52.406;9.690;2024-02-15T04:15:19;8.87;;;6.67;;
64633;SDS011;51043;52.406;9.690;2024-02-15T04:17:47;7.53;;;6.73;;
64633;SDS011;51043;52.406;9.690;2024-02-15T04:20:19;9.07;;;7.30;;
64633;SDS011;51043;52.406;9.690;2024-02-15T04:22:47;8.00;;;7.20;;
64633;SDS011;51043;52.406;9.690;2024-02-15T04:25:16;7.90;;;7.20;;
64633;SDS011;51043;52.406;9.690;2024-02-15T04:27:47;8.77;;;6.97;;
64633;SDS011;51043;52.406;9.690;2024-02-15T04:30:15;8.00;;;6.83;;
64633;SDS011;51043;52.406;9.690;2024-02-15T04:32:44;7.73;;;7.03;;
64633;SDS011;51043;52.406;9.690;2024-02-15T04:35:12;7.87;;;7.07;;
64633;SDS011;51043;52.406;9.690;2024-02-15T04:37:40;7.70;;;6.90;;
64633;SDS011;51043;52.406;9.690;2024-02-15T04:40:09;7.47;;;6.77;;
64633;SDS011;51043;52.406;9.690;2024-02-15T04:42:37;8.70;;;6.30;;
64633;SDS011;51043;52.406;9.690;2024-02-15T04:45:08;6.80;;;6.20;;
64633;SDS011;51043;52.406;9.690;2024-02-15T04:47:39;11.37;;;7.10;;
64633;SDS011;51043;52.406;9.690;2024-02-15T04:50:08;6.87;;;6.17;;
64633;SDS011;51043;52.406;9.690;2024-02-15T04:52:39;7.57;;;6.43;;
64633;SDS011;51043;52.406;9.690;2024-02-15T04:55:12;6.40;;;5.90;;
64633;SDS011;51043;52.406;9.690;2024-02-15T04:57:42;6.77;;;6.17;;
64633;SDS011;51043;52.406;9.690;2024-02-15T05:00:13;6.50;;;5.90;;
64633;SDS011;51043;52.406;9.690;2024-02-15T05:02:42;6.87;;;5.93;;
64633;SDS011;51043;52.406;9.690;2024-02-15T05:05:10;6.33;;;5.67;;
64633;SDS011;51043;52.406;9.690;2024-02-15T05:07:39;6.37;;;5.67;;
64633;SDS011;51043;52.406;9.690;2024-02-15T05:10:09;5.60;;;5.10;;
64633;SDS011;51043;52.406;9.690;2024-02-15T05:12:37;5.47;;;5.00;;
64633;SDS011;51043;52.406;9.690;2024-02-15T05:15:06;6.57;;;5.97;;
64633;SDS011;51043;52.406;9.690;2024-02-15T05:17:39;5.60;;;4.90;;
64633;SDS011;51043;52.406;9.690;2024-02-15T05:20:08;5.43;;;4.93;;
64633;SDS011;51043;52.406;9.690;2024-02-15T05:22:40;5.70;;;5.20;;
64633;SDS011;51043;52.406;9.690;2024-02-15T05:25:14;5.70;;;5.20;;
64633;SDS011;51043;52.406;9.690;2024-02-15T05:27:42;5.60;;;5.10;;
64633;SDS011;51043;52.406;9.690;2024-02-15T05:30:11;8.63;;;5.60;;
64633;SDS011;51043;52.406;9.690;2024-02-15T05:32:42;6.03;;;5.53;;
64633;SDS011;51043;52.406;9.690;2024-02-15T05:35:11;6.77;;;6.07;;
64633;SDS011;51043;52.406;9.690;2024-02-15T05:37:39;6.27;;;5.67;;
64633;SDS011;51043;52.406;9.690;2024-02-15T05:40:07;9.40;;;6.03;;
64633;SDS011;51043;52.406;9.690;2024-02-15T05:42:42;6.60;;;5.90;;
64633;SDS011;51043;52.406;9.690;2024-02-15T05:45:28;6.93;;;6.23;;
64633;SDS011;51043;52.406;9.690;2024-02-15T05:48:02;7.80;;;7.00;;
64633;SDS011;51043;52.406;9.690;2024-02-15T05:50:33;7.70;;;7.00;;
64633;SDS011;51043;52.406;9.690;2024-02-15T05:53:04;8.10;;;7.10;;
64633;SDS011;51043;52.406;9.690;2024-02-15T05:55:34;8.50;;;7.00;;
64633;SDS011;51043;52.406;9.690;2024-02-15T05:58:04;9.87;;;7.87;;
64633;SDS011;51043;52.406;9.690;2024-02-15T06:00:32;9.00;;;7.93;;
64633;SDS011;51043;52.406;9.690;2024-02-15T06:03:02;11.37;;;8.03;;
64633;SDS011;51043;52.406;9.690;2024-02-15T06:05:30;10.17;;;8.43;;
64633;SDS011;51043;52.406;9.690;2024-02-15T06:07:59;9.97;;;8.93;;
64633;SDS011;51043;52.406;9.690;2024-02-15T06:10:27;10.53;;;9.10;;
64633;SDS011;51043;52.406;9.690;2024-02-15T06:12:56;12.53;;;9.40;;
64633;SDS011;51043;52.406;9.690;2024-02-15T06:15:28;13.67;;;10.17;;
64633;SDS011;51043;52.406;9.690;2024-02-15T06:17:56;12.60;;;10.70;;
64633;SDS011;51043;52.406;9.690;2024-02-15T06:20:27;13.77;;;10.67;;
64633;SDS011;51043;52.406;9.690;2024-02-15T06:22:57;13.80;;;10.90;;
64633;SDS011;51043;52.406;9.690;2024-02-15T06:25:26;15.83;;;12.13;;
64633;SDS011;51043;52.406;9.690;2024-02-15T06:27:54;17.17;;;13.13;;
64633;SDS011;51043;52.406;9.690;2024-02-15T06:30:28;19.27;;;13.40;;
64633;SDS011;51043;52.406;9.690;2024-02-15T06:33:14;15.87;;;13.03;;
64633;SDS011;51043;52.406;9.690;2024-02-15T06:36:04;17.77;;;13.90;;
64633;SDS011;51043;52.406;9.690;2024-02-15T06:38:50;17.47;;;13.90;;
64633;SDS011;51043;52.406;9.690;2024-02-15T06:41:36;23.03;;;14.57;;
64633;SDS011;51043;52.406;9.690;2024-02-15T06:44:04;19.10;;;14.60;;
64633;SDS011;51043;52.406;9.690;2024-02-15T06:46:32;20.80;;;14.30;;
64633;SDS011;51043;52.406;9.690;2024-02-15T06:49:01;21.33;;;13.97;;
64633;SDS011;51043;52.406;9.690;2024-02-15T06:51:30;23.77;;;15.37;;
64633;SDS011;51043;52.406;9.690;2024-02-15T06:53:58;22.13;;;15.10;;
64633;SDS011;51043;52.406;9.690;2024-02-15T06:56:28;19.83;;;14.13;;
64633;SDS011;51043;52.406;9.690;2024-02-15T06:58:56;20.53;;;14.30;;
64633;SDS011;51043;52.406;9.690;2024-02-15T07:01:26;18.73;;;13.63;;
64633;SDS011;51043;52.406;9.690;2024-02-15T07:03:54;21.23;;;14.63;;
64633;SDS011;51043;52.406;9.690;2024-02-15T07:06:24;25.27;;;15.43;;
64633;SDS011;51043;52.406;9.690;2024-02-15T07:08:55;24.50;;;14.93;;
64633;SDS011;51043;52.406;9.690;2024-02-15T07:11:27;23.63;;;15.00;;
64633;SDS011;51043;52.406;9.690;2024-02-15T07:14:01;22.63;;;14.63;;
64633;SDS011;51043;52.406;9.690;2024-02-15T07:16:31;21.10;;;15.23;;
64633;SDS011;51043;52.406;9.690;2024-02-15T07:19:01;22.37;;;14.60;;
64633;SDS011;51043;52.406;9.690;2024-02-15T07:21:31;19.60;;;14.03;;
64633;SDS011;51043;52.406;9.690;2024-02-15T07:24:00;23.60;;;14.40;;
64633;SDS011;51043;52.406;9.690;2024-02-15T07:26:28;22.43;;;14.30;;
64633;SDS011;51043;52.406;9.690;2024-02-15T07:28:56;22.37;;;14.77;;
64633;SDS011;51043;52.406;9.690;2024-02-15T07:31:27;18.33;;;13.73;;
64633;SDS011;51043;52.406;9.690;2024-02-15T07:33:56;23.27;;;14.17;;
64633;SDS011;51043;52.406;9.690;2024-02-15T07:36:28;21.27;;;14.23;;
64633;SDS011;51043;52.406;9.690;2024-02-15T07:39:00;19.40;;;14.03;;
64633;SDS011;51043;52.406;9.690;2024-02-15T07:41:30;20.40;;;14.00;;
64633;SDS011;51043;52.406;9.690;2024-02-15T07:44:00;22.97;;;14.07;;
64633;SDS011;51043;52.406;9.690;2024-02-15T07:46:28;18.67;;;14.10;;
64633;SDS011;51043;52.406;9.690;2024-02-15T07:48:59;20.23;;;13.70;;
64633;SDS011;51043;52.406;9.690;2024-02-15T07:51:28;19.13;;;13.40;;
64633;SDS011;51043;52.406;9.690;2024-02-15T07:53:57;22.37;;;13.43;;
64633;SDS011;51043;52.406;9.690;2024-02-15T07:56:28;19.63;;;12.53;;
64633;SDS011;51043;52.406;9.690;2024-02-15T07:58:57;18.67;;;12.77;;
64633;SDS011;51043;52.406;9.690;2024-02-15T08:01:26;16.67;;;11.43;;
64633;SDS011;51043;52.406;9.690;2024-02-15T08:03:56;19.50;;;11.27;;
64633;SDS011;51043;52.406;9.690;2024-02-15T08:06:25;18.77;;;11.00;;
64633;SDS011;51043;52.406;9.690;2024-02-15T08:08:55;15.67;;;10.07;;
64633;SDS011;51043;52.406;9.690;2024-02-15T08:11:23;18.33;;;10.20;;
64633;SDS011;51043;52.406;9.690;2024-02-15T08:13:54;18.70;;;9.17;;
64633;SDS011;51043;52.406;9.690;2024-02-15T08:16:26;17.60;;;8.43;;
64633;SDS011;51043;52.406;9.690;2024-02-15T08:18:54;19.73;;;8.23;;
64633;SDS011;51043;52.406;9.690;2024-02-15T08:21:26;20.43;;;8.77;;
64633;SDS011;51043;52.406;9.690;2024-02-15T08:23:56;12.63;;;8.00;;
64633;SDS011;51043;52.406;9.690;2024-02-15T08:26:27;17.33;;;7.77;;
64633;SDS011;51043;52.406;9.690;2024-02-15T08:28:58;13.23;;;7.43;;
64633;SDS011;51043;52.406;9.690;2024-02-15T08:31:28;17.07;;;7.63;;
64633;SDS011;51043;52.406;9.690;2024-02-15T08:33:58;14.60;;;7.20;;
64633;SDS011;51043;52.406;9.690;2024-02-15T08:36:27;14.60;;;6.90;;
64633;SDS011;51043;52.406;9.690;2024-02-15T08:38:57;10.90;;;6.20;;
64633;SDS011;51043;52.406;9.690;2024-02-15T08:41:27;12.47;;;6.17;;
64633;SDS011;51043;52.406;9.690;2024-02-15T08:43:55;12.73;;;5.90;;
64633;SDS011;51043;52.406;9.690;2024-02-15T08:46:30;13.37;;;5.80;;
64633;SDS011;51043;52.406;9.690;2024-02-15T08:48:59;11.40;;;5.17;;
64633;SDS011;51043;52.406;9.690;2024-02-15T08:51:29;8.80;;;4.73;;
64633;SDS011;51043;52.406;9.690;2024-02-15T08:53:58;8.60;;;4.63;;
64633;SDS011;51043;52.406;9.690;2024-02-15T08:56:29;10.13;;;5.63;;
64633;SDS011;51043;52.406;9.690;2024-02-15T08:59:01;7.80;;;4.63;;
64633;SDS011;51043;52.406;9.690;2024-02-15T09:01:31;13.80;;;4.73;;
64633;SDS011;51043;52.406;9.690;2024-02-15T09:04:00;8.43;;;3.77;;
64633;SDS011;51043;52.406;9.690;2024-02-15T09:06:31;7.63;;;3.43;;
64633;SDS011;51043;52.406;9.690;2024-02-15T09:08:59;7.73;;;3.50;;
64633;SDS011;51043;52.406;9.690;2024-02-15T09:11:30;16.77;;;3.17;;
64633;SDS011;51043;52.406;9.690;2024-02-15T09:13:58;8.83;;;3.17;;
64633;SDS011;51043;52.406;9.690;2024-02-15T09:16:29;3.73;;;2.40;;
64633;SDS011;51043;52.406;9.690;2024-02-15T09:18:58;7.37;;;2.60;;
64633;SDS011;51043;52.406;9.690;2024-02-15T09:21:32;3.73;;;2.50;;
64633;SDS011;51043;52.406;9.690;2024-02-15T09:24:00;5.30;;;2.60;;
64633;SDS011;51043;52.406;9.690;2024-02-15T09:26:29;4.10;;;2.23;;
64633;SDS011;51043;52.406;9.690;2024-02-15T09:28:58;5.70;;;2.27;;
64633;SDS011;51043;52.406;9.690;2024-02-15T09:31:29;8.43;;;2.97;;
64633;SDS011;51043;52.406;9.690;2024-02-15T09:33:58;3.47;;;2.10;;
64633;SDS011;51043;52.406;9.690;2024-02-15T09:36:28;3.10;;;2.10;;
64633;SDS011;51043;52.406;9.690;2024-02-15T09:38:56;6.03;;;2.47;;
64633;SDS011;51043;52.406;9.690;2024-02-15T09:41:25;6.97;;;2.60;;
64633;SDS011;51043;52.406;9.690;2024-02-15T09:43:54;6.33;;;2.47;;
64633;SDS011;51043;52.406;9.690;2024-02-15T09:46:22;5.93;;;2.20;;
64633;SDS011;51043;52.406;9.690;2024-02-15T09:48:54;5.67;;;2.20;;
64633;SDS011;51043;52.406;9.690;2024-02-15T09:51:25;7.53;;;2.40;;
64633;SDS011;51043;52.406;9.690;2024-02-15T09:53:54;5.00;;;2.00;;
64633;SDS011;51043;52.406;9.690;2024-02-15T09:56:24;3.60;;;2.03;;
64633;SDS011;51043;52.406;9.690;2024-02-15T09:58:54;4.80;;;1.90;;
64633;SDS011;51043;52.406;9.690;2024-02-15T10:01:22;7.83;;;1.90;;
64633;SDS011;51043;52.406;9.690;2024-02-15T10:03:55;5.30;;;2.00;;
64633;SDS011;51043;52.406;9.690;2024-02-15T10:06:25;3.67;;;2.27;;
64633;SDS011;51043;52.406;9.690;2024-02-15T10:08:54;4.00;;;2.13;;
64633;SDS011;51043;52.406;9.690;2024-02-15T10:11:56;3.87;;;1.87;;
64633;SDS011;51043;52.406;9.690;2024-02-15T10:14:25;4.93;;;1.90;;
64633;SDS011;51043;52.406;9.690;2024-02-15T10:16:54;2.60;;;1.70;;
64633;SDS011;51043;52.406;9.690;2024-02-15T10:19:26;7.80;;;1.93;;
64633;SDS011;51043;52.406;9.690;2024-02-15T10:22:05;3.47;;;1.73;;
64633;SDS011;51043;52.406;9.690;2024-02-15T10:24:34;6.07;;;2.00;;
64633;SDS011;51043;52.406;9.690;2024-02-15T10:27:03;3.43;;;1.90;;
64633;SDS011;51043;52.406;9.690;2024-02-15T10:29:33;5.43;;;1.80;;
64633;SDS011;51043;52.406;9.690;2024-02-15T10:32:03;4.90;;;2.00;;
64633;SDS011;51043;52.406;9.690;2024-02-15T10:34:44;5.53;;;2.27;;
64633;SDS011;51043;52.406;9.690;2024-02-15T10:37:14;3.47;;;2.03;;
64633;SDS011;51043;52.406;9.690;2024-02-15T10:39:45;14.43;;;2.77;;
64633;SDS011;51043;52.406;9.690;2024-02-15T10:42:14;7.80;;;2.67;;
64633;SDS011;51043;52.406;9.690;2024-02-15T10:44:44;7.67;;;2.37;;
64633;SDS011;51043;52.406;9.690;2024-02-15T10:47:13;5.83;;;2.63;;
64633;SDS011;51043;52.406;9.690;2024-02-15T10:49:43;9.13;;;2.40;;
64633;SDS011;51043;52.406;9.690;2024-02-15T10:52:12;9.53;;;2.80;;
64633;SDS011;51043;52.406;9.690;2024-02-15T10:54:43;7.83;;;2.73;;
64633;SDS011;51043;52.406;9.690;2024-02-15T10:57:14;5.80;;;2.77;;
64633;SDS011;51043;52.406;9.690;2024-02-15T10:59:54;5.77;;;2.80;;
64633;SDS011;51043;52.406;9.690;2024-02-15T11:02:28;7.07;;;2.77;;
64633;SDS011;51043;52.406;9.690;2024-02-15T11:05:03;7.67;;;2.87;;
64633;SDS011;51043;52.406;9.690;2024-02-15T11:07:36;3.50;;;2.60;;
64633;SDS011;51043;52.406;9.690;2024-02-15T11:10:05;6.57;;;3.00;;
64633;SDS011;51043;52.406;9.690;2024-02-15T11:12:35;5.83;;;2.83;;
64633;SDS011;51043;52.406;9.690;2024-02-15T11:15:08;8.53;;;3.03;;
64633;SDS011;51043;52.406;9.690;2024-02-15T11:17:45;10.27;;;3.00;;
64633;SDS011;51043;52.406;9.690;2024-02-15T11:23:25;7.03;;;3.10;;
64633;SDS011;51043;52.406;9.690;2024-02-15T11:26:00;9.00;;;3.10;;
64633;SDS011;51043;52.406;9.690;2024-02-15T11:28:38;6.97;;;2.83;;
64633;SDS011;51043;52.406;9.690;2024-02-15T11:31:07;9.33;;;2.80;;
64633;SDS011;51043;52.406;9.690;2024-02-15T11:33:38;4.97;;;2.47;;
64633;SDS011;51043;52.406;9.690;2024-02-15T11:36:09;6.20;;;2.60;;
64633;SDS011;51043;52.406;9.690;2024-02-15T11:38:38;8.13;;;2.77;;
64633;SDS011;51043;52.406;9.690;2024-02-15T11:41:09;7.60;;;2.77;;
64633;SDS011;51043;52.406;9.690;2024-02-15T11:43:45;9.10;;;2.77;;
64633;SDS011;51043;52.406;9.690;2024-02-15T11:46:16;6.67;;;2.47;;
64633;SDS011;51043;52.406;9.690;2024-02-15T11:48:45;4.67;;;2.70;;
64633;SDS011;51043;52.406;9.690;2024-02-15T11:51:25;7.37;;;2.97;;
64633;SDS011;51043;52.406;9.690;2024-02-15T11:53:58;11.10;;;2.33;;
64633;SDS011;51043;52.406;9.690;2024-02-15T11:56:27;6.97;;;2.37;;
64633;SDS011;51043;52.406;9.690;2024-02-15T11:59:02;7.93;;;2.53;;
64633;SDS011;51043;52.406;9.690;2024-02-15T12:01:32;4.57;;;2.10;;
64633;SDS011;51043;52.406;9.690;2024-02-15T12:04:18;4.83;;;2.30;;
64633;SDS011;51043;52.406;9.690;2024-02-15T12:07:05;6.67;;;2.40;;
64633;SDS011;51043;52.406;9.690;2024-02-15T12:09:57;4.53;;;2.33;;
64633;SDS011;51043;52.406;9.690;2024-02-15T12:12:50;7.00;;;2.10;;
64633;SDS011;51043;52.406;9.690;2024-02-15T12:15:36;5.27;;;2.00;;
64633;SDS011;51043;52.406;9.690;2024-02-15T12:18:22;5.03;;;2.30;;
64633;SDS011;51043;52.406;9.690;2024-02-15T12:21:09;4.27;;;2.13;;
64633;SDS011;51043;52.406;9.690;2024-02-15T12:23:41;4.17;;;2.00;;
64633;SDS011;51043;52.406;9.690;2024-02-15T12:26:09;4.67;;;2.10;;
64633;SDS011;51043;52.406;9.690;2024-02-15T12:28:41;4.33;;;2.00;;
64633;SDS011;51043;52.406;9.690;2024-02-15T12:31:11;6.63;;;2.23;;
64633;SDS011;51043;52.406;9.690;2024-02-15T12:33:40;5.93;;;2.00;;
64633;SDS011;51043;52.406;9.690;2024-02-15T12:36:08;5.03;;;2.00;;
64633;SDS011;51043;52.406;9.690;2024-02-15T12:38:36;4.53;;;1.90;;
64633;SDS011;51043;52.406;9.690;2024-02-15T12:41:17;5.60;;;2.03;;
64633;SDS011;51043;52.406;9.690;2024-02-15T12:43:52;5.13;;;2.10;;
64633;SDS011;51043;52.406;9.690;2024-02-15T12:46:20;5.47;;;2.20;;
64633;SDS011;51043;52.406;9.690;2024-02-15T12:48:48;4.63;;;2.33;;
64633;SDS011;51043;52.406;9.690;2024-02-15T12:51:19;5.80;;;2.20;;
64633;SDS011;51043;52.406;9.690;2024-02-15T12:53:47;7.47;;;2.10;;
64633;SDS011;51043;52.406;9.690;2024-02-15T12:56:21;3.03;;;1.90;;
64633;SDS011;51043;52.406;9.690;2024-02-15T12:58:50;9.30;;;2.10;;
64633;SDS011;51043;52.406;9.690;2024-02-15T13:01:19;3.10;;;1.67;;
64633;SDS011;51043;52.406;9.690;2024-02-15T13:03:47;4.83;;;2.37;;
64633;SDS011;51043;52.406;9.690;2024-02-15T13:06:15;5.03;;;1.70;;
64633;SDS011;51043;52.406;9.690;2024-02-15T13:08:45;5.37;;;2.00;;
64633;SDS011;51043;52.406;9.690;2024-02-15T13:11:15;4.47;;;1.93;;
64633;SDS011;51043;52.406;9.690;2024-02-15T13:13:44;3.57;;;1.57;;
64633;SDS011;51043;52.406;9.690;2024-02-15T13:16:12;2.80;;;1.40;;
64633;SDS011;51043;52.406;9.690;2024-02-15T13:18:41;4.03;;;1.90;;
64633;SDS011;51043;52.406;9.690;2024-02-15T13:21:11;5.17;;;2.00;;
64633;SDS011;51043;52.406;9.690;2024-02-15T13:23:39;2.60;;;1.60;;
64633;SDS011;51043;52.406;9.690;2024-02-15T13:26:07;2.90;;;1.43;;
64633;SDS011;51043;52.406;9.690;2024-02-15T13:28:40;4.10;;;1.83;;
64633;SDS011;51043;52.406;9.690;2024-02-15T13:31:11;4.00;;;2.03;;
64633;SDS011;51043;52.406;9.690;2024-02-15T13:33:40;4.33;;;1.70;;
64633;SDS011;51043;52.406;9.690;2024-02-15T13:36:08;3.43;;;1.50;;
64633;SDS011;51043;52.406;9.690;2024-02-15T13:38:37;2.43;;;1.60;;
64633;SDS011;51043;52.406;9.690;2024-02-15T13:41:05;2.07;;;1.43;;
64633;SDS011;51043;52.406;9.690;2024-02-15T13:43:37;7.80;;;2.10;;
64633;SDS011;51043;52.406;9.690;2024-02-15T13:46:09;2.60;;;1.50;;
64633;SDS011;51043;52.406;9.690;2024-02-15T13:48:38;2.40;;;1.50;;
64633;SDS011;51043;52.406;9.690;2024-02-15T13:51:07;2.03;;;1.43;;
64633;SDS011;51043;52.406;9.690;2024-02-15T13:53:36;2.13;;;1.30;;
64633;SDS011;51043;52.406;9.690;2024-02-15T13:56:06;3.10;;;1.80;;
64633;SDS011;51043;52.406;9.690;2024-02-15T13:58:36;2.50;;;1.43;;
64633;SDS011;51043;52.406;9.690;2024-02-15T14:01:04;1.70;;;1.20;;
64633;SDS011;51043;52.406;9.690;2024-02-15T14:03:33;2.90;;;1.50;;
64633;SDS011;51043;52.406;9.690;2024-02-15T14:06:03;3.50;;;1.60;;
64633;SDS011;51043;52.406;9.690;2024-02-15T14:08:32;4.37;;;1.80;;
64633;SDS011;51043;52.406;9.690;2024-02-15T14:11:00;2.37;;;1.57;;
64633;SDS011;51043;52.406;9.690;2024-02-15T14:13:29;3.13;;;1.50;;
64633;SDS011;51043;52.406;9.690;2024-02-15T14:15:58;4.10;;;1.43;;
64633;SDS011;51043;52.406;9.690;2024-02-15T14:18:29;3.43;;;1.40;;
64633;SDS011;51043;52.406;9.690;2024-02-15T14:20:58;4.30;;;1.53;;
64633;SDS011;51043;52.406;9.690;2024-02-15T14:23:28;2.60;;;2.03;;
64633;SDS011;51043;52.406;9.690;2024-02-15T14:25:56;2.83;;;1.40;;
64633;SDS011;51043;52.406;9.690;2024-02-15T14:28:28;4.60;;;1.80;;
64633;SDS011;51043;52.406;9.690;2024-02-15T14:30:56;2.13;;;1.40;;
64633;SDS011;51043;52.406;9.690;2024-02-15T14:33:42;2.03;;;1.20;;
64633;SDS011;51043;52.406;9.690;2024-02-15T14:36:10;5.37;;;1.67;;
64633;SDS011;51043;52.406;9.690;2024-02-15T14:38:42;2.77;;;1.43;;
64633;SDS011;51043;52.406;9.690;2024-02-15T14:41:13;5.87;;;2.00;;
64633;SDS011;51043;52.406;9.690;2024-02-15T14:43:48;2.40;;;1.60;;
64633;SDS011;51043;52.406;9.690;2024-02-15T14:46:17;3.97;;;1.67;;
64633;SDS011;51043;52.406;9.690;2024-02-15T14:48:45;2.83;;;1.57;;
64633;SDS011;51043;52.406;9.690;2024-02-15T14:51:14;3.40;;;1.60;;
64633;SDS011;51043;52.406;9.690;2024-02-15T14:53:45;3.07;;;1.50;;
64633;SDS011;51043;52.406;9.690;2024-02-15T14:56:15;3.33;;;1.60;;
64633;SDS011;51043;52.406;9.690;2024-02-15T14:58:44;2.73;;;1.70;;
64633;SDS011;51043;52.406;9.690;2024-02-15T15:01:12;2.83;;;1.50;;